sensor_id;sensor_type;location;lat;lon;timestamp;pressure;altitude;pressure_sealevel;temperature;humidity
80493;BME280;69818;50.172;19.144;2023-05-10T00:04:12;101800;;;29.90;28
80493;BME280;69818;50.172;19.144;2023-05-10T00:09:26;101800;;;29.91;28
80493;BME280;69818;50.172;19.144;2023-05-10T00:14:40;101800;;;29.87;29
80493;BME280;69818;50.172;19.144;2023-05-10T00:19:50;101800;;;29.83;29
80493;BME280;69818;50.172;19.144;2023-05-10T00:25:01;101800;;;29.92;29
80493;BME280;69818;50.172;19.144;2023-05-10T00:30:12;101800;;;29.85;29
80493;BME280;69818;50.172;19.144;2023-05-10T00:35:23;101800;;;29.87;29
80493;BME280;69818;50.172;19.144;2023-05-10T00:40:35;101800;;;29.88;29
80493;BME280;69818;50.172;19.144;2023-05-10T00:45:44;101800;;;29.84;29
80493;BME280;69818;50.172;19.144;2023-05-10T00:50:55;101800;;;29.84;29
80493;BME280;69818;50.172;19.144;2023-05-10T00:56:05;101800;;;29.81;29
80493;BME280;69818;50.172;19.144;2023-05-10T01:01:16;101800;;;29.78;29
80493;BME280;69818;50.172;19.144;2023-05-10T01:06:27;101800;;;29.76;29
80493;BME280;69818;50.172;19.144;2023-05-10T01:11:38;101800;;;29.72;29
80493;BME280;69818;50.172;19.144;2023-05-10T01:16:49;101800;;;29.71;29
80493;BME280;69818;50.172;19.144;2023-05-10T01:27:15;101800;;;29.64;29
80493;BME280;69818;50.172;19.144;2023-05-10T01:37:37;101800;;;29.57;29
80493;BME280;69818;50.172;19.144;2023-05-10T01:42:47;101800;;;29.53;29
80493;BME280;69818;50.172;19.144;2023-05-10T01:53:06;101700;;;29.46;29
80493;BME280;69818;50.172;19.144;2023-05-10T02:03:25;101700;;;29.41;29
80493;BME280;69818;50.172;19.144;2023-05-10T02:08:36;101700;;;29.36;29
80493;BME280;69818;50.172;19.144;2023-05-10T02:13:47;101700;;;29.34;29
80493;BME280;69818;50.172;19.144;2023-05-10T02:18:58;101700;;;29.31;29
80493;BME280;69818;50.172;19.144;2023-05-10T02:24:08;101700;;;29.30;29
80493;BME280;69818;50.172;19.144;2023-05-10T02:29:18;101700;;;29.23;29
80493;BME280;69818;50.172;19.144;2023-05-10T02:34:29;101700;;;29.19;30
80493;BME280;69818;50.172;19.144;2023-05-10T02:39:40;101700;;;29.16;30
80493;BME280;69818;50.172;19.144;2023-05-10T02:44:52;101700;;;29.09;30
80493;BME280;69818;50.172;19.144;2023-05-10T02:50:01;101700;;;28.97;30
80493;BME280;69818;50.172;19.144;2023-05-10T02:55:13;101700;;;29.01;30
80493;BME280;69818;50.172;19.144;2023-05-10T03:00:24;101700;;;28.96;30
80493;BME280;69818;50.172;19.144;2023-05-10T03:05:33;101700;;;28.91;30
80493;BME280;69818;50.172;19.144;2023-05-10T03:10:50;101700;;;28.92;30
80493;BME280;69818;50.172;19.144;2023-05-10T03:16:04;101700;;;28.91;30
80493;BME280;69818;50.172;19.144;2023-05-10T03:21:07;101700;;;28.90;30
80493;BME280;69818;50.172;19.144;2023-05-10T03:26:17;101700;;;28.89;30
80493;BME280;69818;50.172;19.144;2023-05-10T03:31:27;101700;;;28.80;30
80493;BME280;69818;50.172;19.144;2023-05-10T03:36:37;101700;;;28.86;30
80493;BME280;69818;50.172;19.144;2023-05-10T03:41:48;101700;;;28.84;30
80493;BME280;69818;50.172;19.144;2023-05-10T03:46:59;101700;;;28.76;30
80493;BME280;69818;50.172;19.144;2023-05-10T03:52:09;101700;;;28.82;30
80493;BME280;69818;50.172;19.144;2023-05-10T03:57:20;101700;;;28.81;30
80493;BME280;69818;50.172;19.144;2023-05-10T04:02:31;101700;;;28.81;30
80493;BME280;69818;50.172;19.144;2023-05-10T04:07:42;101700;;;28.80;30
80493;BME280;69818;50.172;19.144;2023-05-10T04:12:52;101700;;;28.75;30
80493;BME280;69818;50.172;19.144;2023-05-10T04:18:03;101700;;;28.94;30
80493;BME280;69818;50.172;19.144;2023-05-10T04:23:14;101700;;;28.75;30
80493;BME280;69818;50.172;19.144;2023-05-10T04:28:24;101700;;;28.71;30
80493;BME280;69818;50.172;19.144;2023-05-10T04:33:36;101700;;;28.69;30
80493;BME280;69818;50.172;19.144;2023-05-10T04:38:46;101700;;;28.65;30
80493;BME280;69818;50.172;19.144;2023-05-10T04:43:57;101700;;;28.57;30
80493;BME280;69818;50.172;19.144;2023-05-10T04:49:07;101700;;;28.59;30
80493;BME280;69818;50.172;19.144;2023-05-10T04:54:18;101700;;;28.58;30
80493;BME280;69818;50.172;19.144;2023-05-10T04:59:29;101700;;;28.52;31
80493;BME280;69818;50.172;19.144;2023-05-10T05:04:39;101700;;;28.58;30
80493;BME280;69818;50.172;19.144;2023-05-10T05:09:50;101700;;;28.61;30
80493;BME280;69818;50.172;19.144;2023-05-10T05:15:01;101700;;;28.64;30
80493;BME280;69818;50.172;19.144;2023-05-10T05:20:12;101700;;;28.65;31
80493;BME280;69818;50.172;19.144;2023-05-10T05:25:22;101700;;;28.62;31
80493;BME280;69818;50.172;19.144;2023-05-10T05:30:33;101700;;;28.66;31
80493;BME280;69818;50.172;19.144;2023-05-10T05:35:44;101700;;;28.74;31
80493;BME280;69818;50.172;19.144;2023-05-10T05:40:54;101700;;;28.83;31
80493;BME280;69818;50.172;19.144;2023-05-10T05:46:05;101700;;;29.02;31
80493;BME280;69818;50.172;19.144;2023-05-10T05:51:16;101700;;;29.05;31
80493;BME280;69818;50.172;19.144;2023-05-10T05:56:27;101700;;;29.16;31
80493;BME280;69818;50.172;19.144;2023-05-10T06:01:37;101700;;;29.22;30
80493;BME280;69818;50.172;19.144;2023-05-10T06:06:48;101700;;;29.25;31
80493;BME280;69818;50.172;19.144;2023-05-10T06:11:59;101700;;;29.05;31
80493;BME280;69818;50.172;19.144;2023-05-10T06:17:09;101700;;;29.23;31
80493;BME280;69818;50.172;19.144;2023-05-10T06:22:20;101700;;;29.41;30
80493;BME280;69818;50.172;19.144;2023-05-10T06:27:31;101700;;;29.48;31
80493;BME280;69818;50.172;19.144;2023-05-10T06:32:42;101700;;;29.60;30
80493;BME280;69818;50.172;19.144;2023-05-10T06:37:52;101700;;;29.66;30
80493;BME280;69818;50.172;19.144;2023-05-10T06:43:03;101700;;;29.56;30
80493;BME280;69818;50.172;19.144;2023-05-10T06:48:14;101700;;;29.60;31
80493;BME280;69818;50.172;19.144;2023-05-10T06:53:24;101700;;;29.74;30
80493;BME280;69818;50.172;19.144;2023-05-10T06:58:35;101700;;;29.71;29
80493;BME280;69818;50.172;19.144;2023-05-10T07:03:46;101700;;;29.71;29
80493;BME280;69818;50.172;19.144;2023-05-10T07:08:57;101700;;;29.71;29
80493;BME280;69818;50.172;19.144;2023-05-10T07:14:07;101700;;;29.66;28
80493;BME280;69818;50.172;19.144;2023-05-10T07:19:21;101700;;;29.66;28
80493;BME280;69818;50.172;19.144;2023-05-10T07:24:35;101700;;;29.63;28
80493;BME280;69818;50.172;19.144;2023-05-10T07:29:46;101700;;;29.57;27
80493;BME280;69818;50.172;19.144;2023-05-10T07:34:56;101700;;;29.62;27
80493;BME280;69818;50.172;19.144;2023-05-10T07:40:08;101700;;;29.60;28
80493;BME280;69818;50.172;19.144;2023-05-10T07:45:22;101700;;;29.64;27
80493;BME280;69818;50.172;19.144;2023-05-10T07:50:32;101700;;;29.61;27
80493;BME280;69818;50.172;19.144;2023-05-10T07:55:43;101700;;;29.53;26
80493;BME280;69818;50.172;19.144;2023-05-10T08:00:54;101700;;;29.58;26
80493;BME280;69818;50.172;19.144;2023-05-10T08:06:05;101700;;;29.59;26
80493;BME280;69818;50.172;19.144;2023-05-10T08:11:16;101700;;;29.56;26
80493;BME280;69818;50.172;19.144;2023-05-10T08:16:26;101700;;;29.53;26
80493;BME280;69818;50.172;19.144;2023-05-10T08:21:37;101700;;;29.61;25
80493;BME280;69818;50.172;19.144;2023-05-10T08:26:47;101700;;;29.56;25
80493;BME280;69818;50.172;19.144;2023-05-10T08:31:58;101700;;;29.52;25
80493;BME280;69818;50.172;19.144;2023-05-10T08:37:09;101700;;;29.60;25
80493;BME280;69818;50.172;19.144;2023-05-10T08:42:21;101700;;;29.51;25
80493;BME280;69818;50.172;19.144;2023-05-10T08:47:30;101700;;;29.63;25
80493;BME280;69818;50.172;19.144;2023-05-10T08:52:41;101700;;;29.59;25
80493;BME280;69818;50.172;19.144;2023-05-10T08:57:52;101700;;;29.52;25
80493;BME280;69818;50.172;19.144;2023-05-10T09:03:04;101700;;;29.41;25
80493;BME280;69818;50.172;19.144;2023-05-10T09:08:13;101700;;;29.36;25
80493;BME280;69818;50.172;19.144;2023-05-10T09:13:24;101700;;;29.40;25
80493;BME280;69818;50.172;19.144;2023-05-10T09:18:34;101700;;;29.40;25
80493;BME280;69818;50.172;19.144;2023-05-10T09:23:45;101700;;;29.40;25
80493;BME280;69818;50.172;19.144;2023-05-10T09:28:57;101700;;;29.40;25
80493;BME280;69818;50.172;19.144;2023-05-10T09:34:07;101700;;;29.43;25
80493;BME280;69818;50.172;19.144;2023-05-10T09:39:17;101700;;;29.43;25
80493;BME280;69818;50.172;19.144;2023-05-10T09:44:28;101700;;;29.45;25
80493;BME280;69818;50.172;19.144;2023-05-10T09:49:39;101700;;;30.03;25
80493;BME280;69818;50.172;19.144;2023-05-10T09:54:53;101700;;;30.01;25
80493;BME280;69818;50.172;19.144;2023-05-10T10:00:00;101700;;;30.06;25
80493;BME280;69818;50.172;19.144;2023-05-10T10:05:11;101700;;;30.10;25
80493;BME280;69818;50.172;19.144;2023-05-10T10:10:22;101700;;;30.06;25
80493;BME280;69818;50.172;19.144;2023-05-10T10:15:33;101600;;;30.06;26
80493;BME280;69818;50.172;19.144;2023-05-10T10:20:43;101600;;;30.13;25
80493;BME280;69818;50.172;19.144;2023-05-10T10:25:54;101600;;;30.11;25
80493;BME280;69818;50.172;19.144;2023-05-10T10:36:15;101600;;;30.07;26
80493;BME280;69818;50.172;19.144;2023-05-10T10:41:33;101600;;;30.14;25
80493;BME280;69818;50.172;19.144;2023-05-10T10:46:58;101600;;;30.11;25
80493;BME280;69818;50.172;19.144;2023-05-10T11:02:09;101600;;;29.90;25
80493;BME280;69818;50.172;19.144;2023-05-10T11:07:19;101600;;;29.85;25
80493;BME280;69818;50.172;19.144;2023-05-10T11:12:30;101600;;;29.81;25
80493;BME280;69818;50.172;19.144;2023-05-10T11:17:42;101600;;;29.78;24
80493;BME280;69818;50.172;19.144;2023-05-10T11:22:52;101600;;;29.69;25
80493;BME280;69818;50.172;19.144;2023-05-10T11:28:06;101600;;;29.78;25
80493;BME280;69818;50.172;19.144;2023-05-10T11:33:17;101600;;;29.77;26
80493;BME280;69818;50.172;19.144;2023-05-10T11:38:27;101600;;;29.78;25
80493;BME280;69818;50.172;19.144;2023-05-10T11:43:39;101600;;;29.94;24
80493;BME280;69818;50.172;19.144;2023-05-10T11:48:54;101600;;;29.99;24
80493;BME280;69818;50.172;19.144;2023-05-10T11:54:00;101600;;;29.98;25
80493;BME280;69818;50.172;19.144;2023-05-10T11:59:10;101600;;;29.97;25
80493;BME280;69818;50.172;19.144;2023-05-10T12:04:21;101600;;;30.03;25
80493;BME280;69818;50.172;19.144;2023-05-10T12:09:32;101600;;;30.02;25
80493;BME280;69818;50.172;19.144;2023-05-10T12:14:43;101600;;;29.78;25
80493;BME280;69818;50.172;19.144;2023-05-10T12:19:53;101600;;;29.83;25
80493;BME280;69818;50.172;19.144;2023-05-10T12:25:04;101600;;;29.84;25
80493;BME280;69818;50.172;19.144;2023-05-10T12:30:22;101600;;;29.77;25
80493;BME280;69818;50.172;19.144;2023-05-10T12:35:25;101600;;;30.05;25
80493;BME280;69818;50.172;19.144;2023-05-10T12:40:36;101600;;;30.10;25
80493;BME280;69818;50.172;19.144;2023-05-10T12:45:47;101500;;;30.04;25
80493;BME280;69818;50.172;19.144;2023-05-10T12:50:57;101600;;;30.01;24
80493;BME280;69818;50.172;19.144;2023-05-10T12:56:08;101500;;;29.97;24
80493;BME280;69818;50.172;19.144;2023-05-10T13:01:19;101500;;;29.87;24
80493;BME280;69818;50.172;19.144;2023-05-10T13:06:29;101600;;;29.75;23
80493;BME280;69818;50.172;19.144;2023-05-10T13:11:40;101500;;;29.87;24
80493;BME280;69818;50.172;19.144;2023-05-10T13:16:51;101500;;;29.89;23
80493;BME280;69818;50.172;19.144;2023-05-10T13:22:02;101500;;;29.82;23
80493;BME280;69818;50.172;19.144;2023-05-10T13:27:12;101500;;;29.87;23
80493;BME280;69818;50.172;19.144;2023-05-10T13:32:23;101500;;;29.87;23
80493;BME280;69818;50.172;19.144;2023-05-10T13:37:34;101500;;;29.90;23
80493;BME280;69818;50.172;19.144;2023-05-10T13:42:44;101500;;;29.69;23
80493;BME280;69818;50.172;19.144;2023-05-10T13:47:55;101500;;;29.68;23
80493;BME280;69818;50.172;19.144;2023-05-10T13:53:06;101500;;;29.70;23
80493;BME280;69818;50.172;19.144;2023-05-10T13:58:17;101500;;;29.74;23
80493;BME280;69818;50.172;19.144;2023-05-10T14:03:27;101500;;;29.65;23
80493;BME280;69818;50.172;19.144;2023-05-10T14:08:38;101500;;;29.61;23
80493;BME280;69818;50.172;19.144;2023-05-10T14:13:49;101500;;;29.60;23
80493;BME280;69818;50.172;19.144;2023-05-10T14:18:59;101500;;;29.51;23
80493;BME280;69818;50.172;19.144;2023-05-10T14:24:10;101500;;;29.54;23
80493;BME280;69818;50.172;19.144;2023-05-10T14:29:21;101500;;;29.49;23
80493;BME280;69818;50.172;19.144;2023-05-10T14:34:32;101500;;;29.48;23
80493;BME280;69818;50.172;19.144;2023-05-10T14:39:42;101500;;;29.52;23
80493;BME280;69818;50.172;19.144;2023-05-10T14:44:53;101500;;;29.49;23
80493;BME280;69818;50.172;19.144;2023-05-10T14:50:04;101500;;;29.42;23
80493;BME280;69818;50.172;19.144;2023-05-10T14:55:15;101500;;;29.38;23
80493;BME280;69818;50.172;19.144;2023-05-10T15:00:25;101500;;;29.40;23
80493;BME280;69818;50.172;19.144;2023-05-10T15:05:36;101500;;;29.37;23
80493;BME280;69818;50.172;19.144;2023-05-10T15:10:47;101500;;;29.35;23
80493;BME280;69818;50.172;19.144;2023-05-10T15:15:57;101500;;;29.34;23
80493;BME280;69818;50.172;19.144;2023-05-10T15:21:09;101500;;;29.35;23
80493;BME280;69818;50.172;19.144;2023-05-10T15:26:19;101500;;;29.36;23
80493;BME280;69818;50.172;19.144;2023-05-10T15:31:29;101500;;;29.34;23
80493;BME280;69818;50.172;19.144;2023-05-10T15:36:40;101500;;;29.31;23
80493;BME280;69818;50.172;19.144;2023-05-10T15:41:51;101500;;;29.33;23
80493;BME280;69818;50.172;19.144;2023-05-10T15:47:02;101500;;;29.29;23
80493;BME280;69818;50.172;19.144;2023-05-10T15:52:12;101500;;;29.25;23
80493;BME280;69818;50.172;19.144;2023-05-10T15:57:23;101500;;;29.28;23
80493;BME280;69818;50.172;19.144;2023-05-10T16:02:34;101500;;;29.28;23
80493;BME280;69818;50.172;19.144;2023-05-10T16:07:44;101500;;;29.25;23
80493;BME280;69818;50.172;19.144;2023-05-10T16:12:55;101500;;;29.26;23
80493;BME280;69818;50.172;19.144;2023-05-10T16:18:06;101500;;;29.26;23
80493;BME280;69818;50.172;19.144;2023-05-10T16:23:17;101500;;;29.22;23
80493;BME280;69818;50.172;19.144;2023-05-10T16:28:27;101500;;;29.21;23
80493;BME280;69818;50.172;19.144;2023-05-10T16:33:38;101500;;;29.22;24
80493;BME280;69818;50.172;19.144;2023-05-10T16:38:49;101500;;;29.26;24
80493;BME280;69818;50.172;19.144;2023-05-10T16:44:00;101500;;;29.38;24
80493;BME280;69818;50.172;19.144;2023-05-10T16:49:10;101500;;;29.46;24
80493;BME280;69818;50.172;19.144;2023-05-10T16:54:21;101500;;;29.55;24
80493;BME280;69818;50.172;19.144;2023-05-10T16:59:32;101500;;;29.63;24
80493;BME280;69818;50.172;19.144;2023-05-10T17:04:42;101500;;;29.73;24
80493;BME280;69818;50.172;19.144;2023-05-10T17:09:53;101500;;;29.80;24
80493;BME280;69818;50.172;19.144;2023-05-10T17:15:05;101500;;;29.86;24
80493;BME280;69818;50.172;19.144;2023-05-10T17:20:14;101500;;;29.95;24
80493;BME280;69818;50.172;19.144;2023-05-10T17:25:25;101500;;;29.95;24
80493;BME280;69818;50.172;19.144;2023-05-10T17:30:36;101500;;;30.05;24
80493;BME280;69818;50.172;19.144;2023-05-10T17:35:47;101500;;;30.04;24
80493;BME280;69818;50.172;19.144;2023-05-10T17:40:57;101500;;;30.08;24
80493;BME280;69818;50.172;19.144;2023-05-10T17:46:08;101500;;;30.08;24
80493;BME280;69818;50.172;19.144;2023-05-10T17:51:19;101500;;;30.09;24
80493;BME280;69818;50.172;19.144;2023-05-10T17:56:29;101500;;;30.12;24
80493;BME280;69818;50.172;19.144;2023-05-10T18:01:40;101500;;;30.09;24
80493;BME280;69818;50.172;19.144;2023-05-10T18:06:51;101600;;;30.02;24
80493;BME280;69818;50.172;19.144;2023-05-10T18:12:02;101600;;;30.08;24
80493;BME280;69818;50.172;19.144;2023-05-10T18:17:12;101600;;;30.00;24
80493;BME280;69818;50.172;19.144;2023-05-10T18:22:23;101600;;;30.00;24
80493;BME280;69818;50.172;19.144;2023-05-10T18:27:34;101600;;;30.01;24
80493;BME280;69818;50.172;19.144;2023-05-10T18:32:44;101600;;;30.06;24
80493;BME280;69818;50.172;19.144;2023-05-10T18:37:55;101600;;;30.01;24
80493;BME280;69818;50.172;19.144;2023-05-10T18:43:06;101600;;;30.02;24
80493;BME280;69818;50.172;19.144;2023-05-10T18:48:16;101600;;;29.97;24
80493;BME280;69818;50.172;19.144;2023-05-10T18:53:27;101600;;;30.00;24
80493;BME280;69818;50.172;19.144;2023-05-10T18:58:38;101600;;;29.97;25
80493;BME280;69818;50.172;19.144;2023-05-10T19:03:49;101600;;;29.99;24
80493;BME280;69818;50.172;19.144;2023-05-10T19:08:59;101600;;;29.97;25
80493;BME280;69818;50.172;19.144;2023-05-10T19:14:10;101600;;;29.92;25
80493;BME280;69818;50.172;19.144;2023-05-10T19:19:21;101600;;;29.90;25
80493;BME280;69818;50.172;19.144;2023-05-10T19:24:32;101600;;;29.86;25
80493;BME280;69818;50.172;19.144;2023-05-10T19:29:42;101600;;;29.90;25
80493;BME280;69818;50.172;19.144;2023-05-10T19:34:53;101600;;;29.83;25
80493;BME280;69818;50.172;19.144;2023-05-10T19:40:04;101600;;;29.85;25
80493;BME280;69818;50.172;19.144;2023-05-10T19:45:15;101600;;;29.83;25
80493;BME280;69818;50.172;19.144;2023-05-10T19:50:25;101600;;;29.77;25
80493;BME280;69818;50.172;19.144;2023-05-10T19:55:36;101600;;;29.75;25
80493;BME280;69818;50.172;19.144;2023-05-10T20:00:47;101600;;;29.72;25
80493;BME280;69818;50.172;19.144;2023-05-10T20:05:57;101600;;;29.71;25
80493;BME280;69818;50.172;19.144;2023-05-10T20:11:08;101600;;;29.66;25
80493;BME280;69818;50.172;19.144;2023-05-10T20:16:19;101600;;;29.75;24
80493;BME280;69818;50.172;19.144;2023-05-10T20:21:29;101600;;;29.71;25
80493;BME280;69818;50.172;19.144;2023-05-10T20:26:40;101600;;;29.62;25
80493;BME280;69818;50.172;19.144;2023-05-10T20:31:51;101600;;;29.61;25
80493;BME280;69818;50.172;19.144;2023-05-10T20:37:01;101600;;;29.68;25
80493;BME280;69818;50.172;19.144;2023-05-10T20:42:12;101600;;;29.73;25
80493;BME280;69818;50.172;19.144;2023-05-10T20:47:23;101700;;;29.68;25
80493;BME280;69818;50.172;19.144;2023-05-10T20:52:34;101700;;;29.67;25
80493;BME280;69818;50.172;19.144;2023-05-10T20:57:44;101700;;;29.50;25
80493;BME280;69818;50.172;19.144;2023-05-10T21:02:55;101700;;;29.50;25
80493;BME280;69818;50.172;19.144;2023-05-10T21:08:06;101700;;;29.53;25
80493;BME280;69818;50.172;19.144;2023-05-10T21:13:16;101700;;;29.47;25
80493;BME280;69818;50.172;19.144;2023-05-10T21:18:27;101700;;;29.47;25
80493;BME280;69818;50.172;19.144;2023-05-10T21:23:38;101700;;;29.43;25
80493;BME280;69818;50.172;19.144;2023-05-10T21:28:49;101700;;;29.39;25
80493;BME280;69818;50.172;19.144;2023-05-10T21:33:59;101700;;;29.35;25
80493;BME280;69818;50.172;19.144;2023-05-10T21:39:10;101700;;;29.31;25
80493;BME280;69818;50.172;19.144;2023-05-10T21:44:21;101700;;;29.26;25
80493;BME280;69818;50.172;19.144;2023-05-10T21:49:32;101700;;;29.28;25
80493;BME280;69818;50.172;19.144;2023-05-10T21:54:42;101700;;;29.23;25
80493;BME280;69818;50.172;19.144;2023-05-10T21:59:53;101700;;;29.22;25
80493;BME280;69818;50.172;19.144;2023-05-10T22:05:04;101700;;;29.20;25
80493;BME280;69818;50.172;19.144;2023-05-10T22:10:14;101700;;;29.16;25
80493;BME280;69818;50.172;19.144;2023-05-10T22:15:25;101700;;;29.13;25
80493;BME280;69818;50.172;19.144;2023-05-10T22:20:36;101700;;;29.21;25
80493;BME280;69818;50.172;19.144;2023-05-10T22:25:46;101700;;;29.22;25
80493;BME280;69818;50.172;19.144;2023-05-10T22:30:57;101700;;;29.31;25
80493;BME280;69818;50.172;19.144;2023-05-10T22:36:08;101700;;;29.40;26
80493;BME280;69818;50.172;19.144;2023-05-10T22:41:20;101700;;;29.55;25
80493;BME280;69818;50.172;19.144;2023-05-10T22:46:33;101700;;;29.63;25
80493;BME280;69818;50.172;19.144;2023-05-10T22:51:40;101700;;;29.73;25
80493;BME280;69818;50.172;19.144;2023-05-10T22:56:51;101700;;;29.85;25
80493;BME280;69818;50.172;19.144;2023-05-10T23:02:02;101700;;;29.86;25
80493;BME280;69818;50.172;19.144;2023-05-10T23:07:12;101700;;;29.89;25
80493;BME280;69818;50.172;19.144;2023-05-10T23:12:23;101700;;;29.90;25
80493;BME280;69818;50.172;19.144;2023-05-10T23:17:34;101700;;;30.00;25
80493;BME280;69818;50.172;19.144;2023-05-10T23:22:44;101700;;;29.93;25
80493;BME280;69818;50.172;19.144;2023-05-10T23:27:55;101700;;;30.01;25
80493;BME280;69818;50.172;19.144;2023-05-10T23:33:06;101700;;;30.01;25
80493;BME280;69818;50.172;19.144;2023-05-10T23:38:17;101700;;;29.97;25
80493;BME280;69818;50.172;19.144;2023-05-10T23:43:27;101700;;;30.01;25
80493;BME280;69818;50.172;19.144;2023-05-10T23:48:38;101700;;;30.01;25
80493;BME280;69818;50.172;19.144;2023-05-10T23:53:49;101700;;;29.99;25
80493;BME280;69818;50.172;19.144;2023-05-10T23:58:59;101700;;;29.88;25
